Time;durP1;ratioP1;P1;durP2;ratioP2;P2;SDS_P1;SDS_P2;PMS_P1;PMS_P2;Temp;Humidity;BMP_temperature;BMP_pressure;BME280_temperature;BME280_humidity;BME280_pressure;Samples;Min_cycle;Max_cycle;Signal;HPM_P1;HPM_P2
2021/05/23 00:00:41;;;;;;;0.85;0.60;;;21.60;53.40;;;;;;5120427;28;20046;-63
2021/05/23 00:03:16;;;;;;;0.68;0.60;;;21.60;53.40;;;;;;5123669;28;20054;-63
2021/05/23 00:05:49;;;;;;;0.73;0.60;;;21.70;53.50;;;;;;5122756;28;20667;-64
2021/05/23 00:08:22;;;;;;;0.85;0.70;;;21.60;53.40;;;;;;5127328;28;20046;-62
2021/05/23 00:11:03;;;;;;;1.08;0.60;;;21.60;53.50;;;;;;5132777;28;20660;-63
2021/05/23 00:13:42;;;;;;;1.25;0.68;;;21.60;53.40;;;;;;5126379;28;20297;-64
2021/05/23 00:16:18;;;;;;;0.88;0.60;;;21.60;53.40;;;;;;5120335;28;20038;-62
2021/05/23 00:18:53;;;;;;;0.70;0.60;;;21.70;53.40;;;;;;5128298;28;20047;-63
2021/05/23 00:21:26;;;;;;;1.00;0.40;;;21.60;53.40;;;;;;5119592;28;20050;-63
2021/05/23 00:23:59;;;;;;;0.55;0.52;;;21.60;53.40;;;;;;5133110;28;20053;-65
2021/05/23 00:26:32;;;;;;;0.90;0.60;;;21.60;53.40;;;;;;5120739;28;20452;-64
2021/05/23 00:29:05;;;;;;;0.87;0.50;;;21.60;53.40;;;;;;5122090;28;20046;-64
2021/05/23 00:31:38;;;;;;;0.53;0.50;;;21.60;53.40;;;;;;5120556;28;20305;-64
2021/05/23 00:34:11;;;;;;;0.60;0.60;;;21.60;53.40;;;;;;5118994;28;20310;-67
2021/05/23 00:36:43;;;;;;;0.73;0.70;;;21.60;53.40;;;;;;5105566;28;25167;-67
2021/05/23 00:39:16;;;;;;;0.50;0.40;;;21.60;53.30;;;;;;5121133;28;20587;-67
2021/05/23 00:41:48;;;;;;;0.90;0.50;;;21.60;53.30;;;;;;5118513;28;20066;-64
2021/05/23 00:44:21;;;;;;;1.10;0.60;;;21.60;53.40;;;;;;5119323;28;20303;-66
2021/05/23 00:46:53;;;;;;;1.25;0.80;;;21.60;53.50;;;;;;5115867;28;20051;-63
2021/05/23 00:49:26;;;;;;;0.80;0.77;;;21.60;53.40;;;;;;5121475;28;20055;-61
2021/05/23 00:51:58;;;;;;;1.23;0.55;;;21.70;53.40;;;;;;5117584;28;20589;-66
2021/05/23 00:54:32;;;;;;;0.70;0.60;;;21.60;53.40;;;;;;5121550;28;20401;-63
2021/05/23 00:57:05;;;;;;;0.63;0.57;;;21.60;53.40;;;;;;5119869;28;21652;-63
2021/05/23 00:59:37;;;;;;;0.70;0.70;;;21.60;53.40;;;;;;5125462;28;20058;-65
2021/05/23 01:02:10;;;;;;;0.93;0.70;;;21.60;53.50;;;;;;5121259;28;20049;-66
2021/05/23 01:04:43;;;;;;;0.70;0.63;;;21.60;53.40;;;;;;5123463;28;20147;-64
2021/05/23 01:07:15;;;;;;;0.52;0.50;;;21.60;53.50;;;;;;5130468;28;20046;-64
2021/05/23 01:09:48;;;;;;;0.50;0.50;;;21.60;53.50;;;;;;5132090;28;20050;-65
2021/05/23 01:12:24;;;;;;;0.70;0.50;;;21.60;53.50;;;;;;5121870;28;20058;-65
2021/05/23 01:14:59;;;;;;;0.50;0.50;;;21.60;53.50;;;;;;5135899;28;20050;-65
2021/05/23 01:17:42;;;;;;;0.70;0.50;;;21.60;53.50;;;;;;5122175;28;20081;-64
2021/05/23 01:20:25;;;;;;;0.43;0.43;;;21.60;53.50;;;;;;5132416;28;20057;-62
2021/05/23 01:23:22;;;;;;;1.10;0.70;;;21.60;53.40;;;;;;5130599;28;20054;-64
2021/05/23 01:26:04;;;;;;;0.60;0.50;;;21.60;53.60;;;;;;5125677;28;20050;-63
2021/05/23 01:28:45;;;;;;;0.77;0.57;;;21.60;53.50;;;;;;5130379;28;20458;-64
2021/05/23 01:31:19;;;;;;;0.65;0.50;;;21.60;53.50;;;;;;5139229;28;20436;-64
2021/05/23 01:33:53;;;;;;;1.65;0.77;;;21.60;53.50;;;;;;5127001;28;20298;-62
2021/05/23 01:36:34;;;;;;;0.55;0.50;;;21.60;53.50;;;;;;5141177;28;20054;-64
2021/05/23 01:39:08;;;;;;;1.50;0.50;;;21.60;53.60;;;;;;5124289;28;20058;-65
2021/05/23 01:41:42;;;;;;;0.70;0.40;;;21.60;53.60;;;;;;5128306;28;20042;-63
2021/05/23 01:44:15;;;;;;;0.55;0.55;;;21.60;53.50;;;;;;5130943;28;20057;-65
2021/05/23 01:46:48;;;;;;;0.60;0.60;;;21.60;53.40;;;;;;5118443;28;20541;-66
2021/05/23 01:49:20;;;;;;;1.17;0.80;;;21.60;53.40;;;;;;5124490;28;20051;-64
2021/05/23 01:51:53;;;;;;;0.80;0.52;;;21.60;53.40;;;;;;5112078;28;20080;-64
2021/05/23 01:54:25;;;;;;;0.77;0.60;;;21.60;53.60;;;;;;5123201;28;20054;-64
2021/05/23 01:57:06;;;;;;;0.52;0.43;;;21.60;53.60;;;;;;5127039;28;20042;-65
2021/05/23 01:59:39;;;;;;;1.15;0.57;;;21.60;53.60;;;;;;5126501;28;20493;-63
2021/05/23 02:02:12;;;;;;;1.05;0.52;;;21.60;53.60;;;;;;5128413;28;20042;-64
2021/05/23 02:04:45;;;;;;;0.65;0.65;;;21.60;53.60;;;;;;5127114;28;21182;-66
2021/05/23 02:07:18;;;;;;;0.70;0.50;;;21.60;53.50;;;;;;5126405;28;20062;-65
2021/05/23 02:09:51;;;;;;;0.63;0.57;;;21.60;53.60;;;;;;5122414;28;20054;-66
2021/05/23 02:12:23;;;;;;;1.10;0.60;;;21.60;53.50;;;;;;5130072;28;20081;-66
2021/05/23 02:14:56;;;;;;;1.17;0.63;;;21.60;53.60;;;;;;5118894;28;20045;-61
2021/05/23 02:17:28;;;;;;;0.77;0.77;;;21.60;53.60;;;;;;5132404;28;20054;-66
2021/05/23 02:20:04;;;;;;;0.50;0.50;;;21.60;53.50;;;;;;5124236;28;20684;-66
2021/05/23 02:22:41;;;;;;;0.85;0.50;;;21.60;53.50;;;;;;5124649;28;20046;-68
2021/05/23 02:25:18;;;;;;;0.63;0.60;;;21.60;53.50;;;;;;5125690;28;20521;-64
2021/05/23 02:27:53;;;;;;;0.50;0.50;;;21.60;53.50;;;;;;5125008;28;20049;-63
2021/05/23 02:30:33;;;;;;;0.95;0.60;;;21.60;53.60;;;;;;5128775;28;20549;-61
2021/05/23 02:33:07;;;;;;;0.45;0.30;;;21.60;53.50;;;;;;5125902;28;20046;-65
2021/05/23 02:35:44;;;;;;;1.38;0.65;;;21.60;53.60;;;;;;5137102;28;20057;-63
2021/05/23 02:38:17;;;;;;;0.82;0.50;;;21.60;53.60;;;;;;5140951;28;20046;-63
2021/05/23 02:40:49;;;;;;;0.50;0.50;;;21.60;53.60;;;;;;5126181;28;20503;-62
2021/05/23 02:43:22;;;;;;;0.60;0.60;;;21.60;53.50;;;;;;5125803;28;20043;-63
2021/05/23 02:45:54;;;;;;;0.47;0.45;;;21.60;53.40;;;;;;5129252;28;20046;-65
2021/05/23 02:48:27;;;;;;;0.60;0.60;;;21.60;53.60;;;;;;5124167;28;20051;-64
2021/05/23 02:51:02;;;;;;;0.80;0.50;;;21.50;53.60;;;;;;5120487;28;20046;-60
2021/05/23 02:53:35;;;;;;;0.40;0.40;;;21.50;53.60;;;;;;5125507;28;20046;-66
2021/05/23 02:56:07;;;;;;;1.00;0.60;;;21.60;53.60;;;;;;5124288;28;20109;-63
2021/05/23 02:58:40;;;;;;;0.90;0.60;;;21.60;53.50;;;;;;5125722;28;20528;-62
2021/05/23 03:01:12;;;;;;;1.17;0.63;;;21.60;53.50;;;;;;5141330;28;20058;-65
2021/05/23 03:03:45;;;;;;;0.68;0.57;;;21.60;53.60;;;;;;5114163;28;20099;-62
2021/05/23 03:06:18;;;;;;;1.08;0.50;;;21.50;53.40;;;;;;5124310;28;20713;-66
2021/05/23 03:08:52;;;;;;;0.67;0.50;;;21.50;53.60;;;;;;5125884;28;20522;-64
2021/05/23 03:11:24;;;;;;;;;;;21.50;53.50;;;;;;5125932;28;20312;-61
2021/05/23 03:13:57;;;;;;;0.98;0.60;;;21.50;53.60;;;;;;5142859;28;20552;-60
2021/05/23 03:16:29;;;;;;;0.70;0.70;;;21.50;53.60;;;;;;5126897;28;20630;-59
2021/05/23 03:19:03;;;;;;;0.88;0.70;;;21.50;54.00;;;;;;5126129;28;20510;-62
2021/05/23 03:21:40;;;;;;;0.50;0.50;;;21.50;53.60;;;;;;5126054;28;20050;-64
2021/05/23 03:24:12;;;;;;;0.80;0.55;;;21.50;53.60;;;;;;5128622;28;20057;-65
2021/05/23 03:26:45;;;;;;;0.63;0.63;;;21.60;53.60;;;;;;5130230;28;20431;-64
2021/05/23 03:29:17;;;;;;;0.50;0.40;;;21.50;53.60;;;;;;5134711;28;20289;-65
2021/05/23 03:31:50;;;;;;;0.65;0.50;;;21.60;53.60;;;;;;5140998;28;20043;-66
2021/05/23 03:34:23;;;;;;;0.50;0.50;;;21.50;53.70;;;;;;5135655;28;20058;-65
2021/05/23 03:36:55;;;;;;;0.70;0.60;;;21.50;53.60;;;;;;5124012;28;20662;-64
2021/05/23 03:39:28;;;;;;;2.40;0.47;;;21.50;53.60;;;;;;5122620;28;20051;-64
2021/05/23 03:42:00;;;;;;;0.60;0.40;;;21.50;53.60;;;;;;5125543;28;20316;-65
2021/05/23 03:44:33;;;;;;;0.60;0.55;;;21.50;53.70;;;;;;5124808;28;20522;-68
2021/05/23 03:47:05;;;;;;;0.40;0.40;;;21.50;53.70;;;;;;5127544;28;20498;-62
2021/05/23 03:49:38;;;;;;;0.93;0.63;;;21.50;53.70;;;;;;5126801;28;20073;-64
2021/05/23 03:52:11;;;;;;;0.52;0.50;;;21.50;53.70;;;;;;5134524;28;20062;-64
2021/05/23 03:54:44;;;;;;;1.25;0.57;;;21.50;53.70;;;;;;5127697;28;20281;-66
2021/05/23 03:57:16;;;;;;;0.50;0.50;;;21.50;53.70;;;;;;5131840;28;20077;-64
2021/05/23 03:59:49;;;;;;;0.50;0.50;;;21.50;53.70;;;;;;5126484;28;20070;-63
2021/05/23 04:02:21;;;;;;;0.40;0.40;;;21.50;53.70;;;;;;5126585;28;20051;-67
2021/05/23 04:04:57;;;;;;;0.40;0.40;;;21.50;53.60;;;;;;5124374;28;20055;-66
2021/05/23 04:07:30;;;;;;;0.40;0.40;;;21.50;53.70;;;;;;5124931;28;20522;-64
2021/05/23 04:10:04;;;;;;;;;;;21.50;53.70;;;;;;5126906;28;20051;-63
2021/05/23 04:12:42;;;;;;;0.60;0.60;;;21.50;53.70;;;;;;5127037;28;19922;-66
2021/05/23 04:15:16;;;;;;;0.50;0.50;;;21.50;53.70;;;;;;5137475;28;20058;-66
2021/05/23 04:17:49;;;;;;;0.57;0.57;;;21.50;53.70;;;;;;5124754;28;20057;-64
2021/05/23 04:20:23;;;;;;;0.60;0.43;;;21.50;53.70;;;;;;5127899;28;20065;-65
2021/05/23 04:22:55;;;;;;;0.70;0.63;;;21.50;53.70;;;;;;5122867;28;20058;-64
2021/05/23 04:25:28;;;;;;;0.70;0.60;;;21.50;53.60;;;;;;5128756;28;20383;-63
2021/05/23 04:28:00;;;;;;;0.75;0.50;;;21.50;53.70;;;;;;5123415;28;20061;-66
2021/05/23 04:30:33;;;;;;;1.17;0.50;;;21.50;53.60;;;;;;5125574;28;20042;-67
2021/05/23 04:33:06;;;;;;;0.30;0.30;;;21.50;53.70;;;;;;5121543;28;21559;-66
2021/05/23 04:35:38;;;;;;;0.60;0.60;;;21.50;53.70;;;;;;5123263;28;20724;-66
2021/05/23 04:38:11;;;;;;;0.60;0.60;;;21.60;53.60;;;;;;5122039;28;20308;-66
2021/05/23 04:40:44;;;;;;;0.50;0.40;;;21.60;53.50;;;;;;5126517;28;20053;-66
2021/05/23 04:43:16;;;;;;;0.80;0.50;;;21.70;53.30;;;;;;5120978;28;20758;-66
2021/05/23 04:45:49;;;;;;;1.27;0.55;;;21.70;53.30;;;;;;5122770;28;20165;-66
2021/05/23 04:48:21;;;;;;;1.07;0.67;;;21.80;53.20;;;;;;5120334;28;20431;-65
2021/05/23 04:50:54;;;;;;;0.75;0.52;;;21.80;53.10;;;;;;5122991;28;20054;-64
2021/05/23 04:53:26;;;;;;;0.38;0.38;;;21.90;53.10;;;;;;5123706;28;20054;-65
2021/05/23 04:55:59;;;;;;;0.75;0.60;;;21.90;53.00;;;;;;5123692;28;20675;-65
2021/05/23 04:58:31;;;;;;;0.50;0.50;;;21.90;52.90;;;;;;5122047;28;20058;-65
2021/05/23 05:01:05;;;;;;;0.60;0.50;;;21.90;53.00;;;;;;5123444;28;20380;-63
2021/05/23 05:03:49;;;;;;;0.98;0.50;;;21.90;52.90;;;;;;5122939;28;20047;-67
2021/05/23 05:06:21;;;;;;;0.45;0.45;;;22.00;52.90;;;;;;5123766;28;20419;-63
2021/05/23 05:08:54;;;;;;;0.70;0.60;;;22.00;52.80;;;;;;5121146;28;20551;-65
2021/05/23 05:11:26;;;;;;;1.63;0.70;;;22.00;52.80;;;;;;5123172;28;20054;-67
2021/05/23 05:13:59;;;;;;;0.50;0.50;;;22.00;52.70;;;;;;5122104;28;21128;-67
2021/05/23 05:16:31;;;;;;;0.50;0.50;;;22.00;52.70;;;;;;5125543;28;20529;-65
2021/05/23 05:19:04;;;;;;;0.88;0.60;;;22.10;52.70;;;;;;5122897;28;20505;-65
2021/05/23 05:21:36;;;;;;;0.50;0.50;;;22.10;52.60;;;;;;5134429;28;20061;-66
2021/05/23 05:24:10;;;;;;;0.60;0.50;;;22.10;52.60;;;;;;5122796;28;20332;-65
2021/05/23 05:26:43;;;;;;;0.50;0.40;;;22.10;52.60;;;;;;5126768;28;20058;-63
2021/05/23 05:29:17;;;;;;;1.77;0.70;;;22.10;52.50;;;;;;5122641;28;20043;-63
2021/05/23 05:31:50;;;;;;;1.65;0.55;;;22.10;52.50;;;;;;5123882;28;20872;-63
2021/05/23 05:34:22;;;;;;;0.60;0.50;;;22.20;52.50;;;;;;5126504;28;20055;-66
2021/05/23 05:36:55;;;;;;;0.50;0.40;;;22.20;52.50;;;;;;5124384;28;20050;-69
2021/05/23 05:39:27;;;;;;;0.45;0.40;;;22.20;52.50;;;;;;5123025;28;20430;-62
2021/05/23 05:42:00;;;;;;;1.23;0.70;;;22.20;52.40;;;;;;5123027;28;20050;-65
2021/05/23 05:44:32;;;;;;;0.32;0.32;;;22.20;52.40;;;;;;5125239;28;20085;-65
2021/05/23 05:47:05;;;;;;;0.68;0.50;;;22.20;52.30;;;;;;5125916;28;20061;-64
2021/05/23 05:49:37;;;;;;;0.47;0.40;;;22.20;52.40;;;;;;5121937;28;20077;-66
2021/05/23 05:52:10;;;;;;;1.17;0.40;;;22.20;52.30;;;;;;5126586;28;20271;-63
2021/05/23 05:54:42;;;;;;;0.73;0.60;;;22.20;52.40;;;;;;5125168;28;20077;-64
2021/05/23 05:57:15;;;;;;;0.93;0.43;;;22.30;52.30;;;;;;5124291;28;20062;-66
2021/05/23 06:00:00;;;;;;;0.65;0.60;;;22.20;52.30;;;;;;5121362;28;20662;-66
2021/05/23 06:02:32;;;;;;;0.50;0.40;;;22.20;52.40;;;;;;5126615;28;20046;-64
2021/05/23 06:05:06;;;;;;;0.40;0.40;;;22.20;52.30;;;;;;5128340;28;20050;-65
2021/05/23 06:07:38;;;;;;;0.30;0.30;;;22.20;52.40;;;;;;5129641;28;20043;-65
2021/05/23 06:10:12;;;;;;;0.60;0.43;;;22.20;52.40;;;;;;5133591;28;20058;-63
2021/05/23 06:12:45;;;;;;;0.50;0.50;;;22.20;52.40;;;;;;5117265;28;20523;-63
2021/05/23 06:15:17;;;;;;;0.63;0.50;;;22.20;52.40;;;;;;5125098;28;20589;-63
2021/05/23 06:17:50;;;;;;;1.03;0.50;;;22.20;52.30;;;;;;5127648;28;20050;-64
2021/05/23 06:20:23;;;;;;;0.53;0.50;;;22.30;52.40;;;;;;5126040;28;20848;-65
2021/05/23 06:22:55;;;;;;;0.52;0.32;;;22.30;52.30;;;;;;5123517;28;20077;-62
2021/05/23 06:25:28;;;;;;;0.52;0.40;;;22.30;52.30;;;;;;5121621;28;20053;-64
2021/05/23 06:28:00;;;;;;;0.95;0.68;;;22.30;52.30;;;;;;5129312;28;20042;-64
2021/05/23 06:30:33;;;;;;;0.32;0.30;;;22.30;52.30;;;;;;5131327;28;20061;-65
2021/05/23 06:33:05;;;;;;;0.38;0.38;;;22.30;52.30;;;;;;5147218;28;20418;-64
2021/05/23 06:35:38;;;;;;;0.53;0.50;;;22.30;52.20;;;;;;5131351;28;20527;-64
2021/05/23 06:38:10;;;;;;;0.32;0.32;;;22.30;52.30;;;;;;5129206;28;20321;-62
2021/05/23 06:40:44;;;;;;;0.40;0.40;;;22.30;52.20;;;;;;5130297;28;20585;-64
2021/05/23 06:43:16;;;;;;;0.45;0.40;;;22.30;52.30;;;;;;5127583;28;20273;-65
2021/05/23 06:45:49;;;;;;;0.32;0.32;;;22.30;52.20;;;;;;5139311;28;20050;-64
2021/05/23 06:48:22;;;;;;;0.60;0.50;;;22.30;52.20;;;;;;5114801;28;20054;-65
2021/05/23 06:50:54;;;;;;;0.30;0.30;;;22.30;52.20;;;;;;5123775;28;20062;-64
2021/05/23 06:53:27;;;;;;;0.57;0.40;;;22.30;52.20;;;;;;5125995;28;20494;-64
2021/05/23 06:56:01;;;;;;;0.40;0.40;;;22.30;52.30;;;;;;5125545;28;20054;-63
2021/05/23 06:58:34;;;;;;;0.30;0.30;;;22.30;52.30;;;;;;5131436;28;20070;-64
2021/05/23 07:01:07;;;;;;;1.30;0.50;;;22.30;52.20;;;;;;5123073;28;21695;-64
2021/05/23 07:03:39;;;;;;;1.15;0.65;;;22.40;52.30;;;;;;5125962;28;20050;-64
2021/05/23 07:06:12;;;;;;;0.88;0.40;;;22.40;52.20;;;;;;5126993;28;20418;-63
2021/05/23 07:08:44;;;;;;;0.33;0.33;;;22.30;52.20;;;;;;5125065;28;20051;-64
2021/05/23 07:11:17;;;;;;;0.40;0.40;;;22.40;52.20;;;;;;5122810;28;20054;-63
2021/05/23 07:13:49;;;;;;;0.98;0.40;;;22.40;52.10;;;;;;5121792;28;20050;-67
2021/05/23 07:16:22;;;;;;;0.57;0.50;;;22.40;52.20;;;;;;5122486;28;20058;-62
2021/05/23 07:18:54;;;;;;;0.68;0.50;;;22.40;52.20;;;;;;5122062;28;20053;-65
2021/05/23 07:21:27;;;;;;;0.40;0.40;;;22.40;52.20;;;;;;5125158;28;20050;-66
2021/05/23 07:24:00;;;;;;;0.40;0.38;;;22.40;52.20;;;;;;5125432;28;20039;-64
2021/05/23 07:26:32;;;;;;;0.20;0.20;;;22.40;52.20;;;;;;5123180;28;20391;-63
2021/05/23 07:29:06;;;;;;;0.40;0.40;;;22.40;52.10;;;;;;5122036;28;20050;-64
2021/05/23 07:31:38;;;;;;;0.20;0.20;;;22.40;52.10;;;;;;5124666;28;20046;-63
2021/05/23 07:34:11;;;;;;;0.32;0.32;;;22.40;52.10;;;;;;5120304;28;20050;-65
2021/05/23 07:36:43;;;;;;;0.68;0.35;;;22.40;52.10;;;;;;5125130;28;20651;-61
2021/05/23 07:39:20;;;;;;;0.50;0.50;;;22.40;52.10;;;;;;5133198;28;21014;-63
2021/05/23 07:41:52;;;;;;;0.40;0.40;;;22.40;52.20;;;;;;5096483;28;20047;-65
2021/05/23 07:44:25;;;;;;;0.30;0.20;;;22.40;52.20;;;;;;5105404;28;20053;-64
2021/05/23 07:46:57;;;;;;;0.30;0.30;;;22.40;52.10;;;;;;5118487;28;20050;-63
2021/05/23 07:49:30;;;;;;;0.75;0.40;;;22.40;52.10;;;;;;5117339;28;20533;-63
2021/05/23 07:52:03;;;;;;;0.40;0.40;;;22.40;52.00;;;;;;5120163;28;20055;-63
2021/05/23 07:54:37;;;;;;;0.35;0.35;;;22.40;52.10;;;;;;5121746;28;20046;-64
2021/05/23 07:57:10;;;;;;;0.30;0.30;;;22.40;52.20;;;;;;5117874;28;20053;-63
2021/05/23 07:59:43;;;;;;;0.77;0.30;;;22.40;52.00;;;;;;5126617;28;20038;-61
2021/05/23 08:02:16;;;;;;;0.35;0.35;;;22.40;52.00;;;;;;5116302;28;20050;-62
2021/05/23 08:04:48;;;;;;;0.30;0.30;;;22.50;52.00;;;;;;5117718;28;20051;-65
2021/05/23 08:07:21;;;;;;;0.30;0.30;;;22.50;52.00;;;;;;5119782;28;20057;-64
2021/05/23 08:09:53;;;;;;;0.85;0.40;;;22.50;51.90;;;;;;5118934;28;20546;-66
2021/05/23 08:12:26;;;;;;;0.50;0.47;;;22.50;52.00;;;;;;5118544;28;20426;-65
2021/05/23 08:15:00;;;;;;;0.47;0.40;;;22.50;52.00;;;;;;5120914;28;20313;-65
2021/05/23 08:17:32;;;;;;;0.20;0.20;;;22.50;51.90;;;;;;5119165;28;20042;-64
2021/05/23 08:20:05;;;;;;;0.40;0.30;;;22.50;51.80;;;;;;5117522;28;20950;-63
2021/05/23 08:22:38;;;;;;;0.30;0.30;;;22.50;51.90;;;;;;5120403;28;20499;-64
2021/05/23 08:25:12;;;;;;;0.40;0.35;;;22.60;51.80;;;;;;5118427;28;20050;-65
2021/05/23 08:27:44;;;;;;;0.43;0.43;;;22.60;51.80;;;;;;5101401;28;20578;-65
2021/05/23 08:30:17;;;;;;;0.70;0.30;;;22.60;51.90;;;;;;5117794;28;20042;-64
2021/05/23 08:32:50;;;;;;;0.40;0.40;;;22.50;51.80;;;;;;5116685;28;20046;-64
2021/05/23 08:35:22;;;;;;;0.30;0.30;;;22.50;51.80;;;;;;5119662;28;20051;-64
2021/05/23 08:37:55;;;;;;;0.30;0.30;;;22.60;52.00;;;;;;5122717;28;20529;-66
2021/05/23 08:40:28;;;;;;;0.60;0.30;;;22.50;52.50;;;;;;5125287;28;20054;-63
2021/05/23 08:43:08;;;;;;;0.65;0.40;;;22.50;51.90;;;;;;5117885;28;20042;-67
2021/05/23 08:45:41;;;;;;;0.30;0.30;;;22.50;51.90;;;;;;5121825;28;20586;-64
2021/05/23 08:48:16;;;;;;;0.25;0.25;;;22.50;51.90;;;;;;5118769;28;20545;-65
2021/05/23 08:50:49;;;;;;;0.40;0.25;;;22.50;51.90;;;;;;5115059;28;21120;-64
2021/05/23 08:53:22;;;;;;;0.40;0.40;;;22.50;51.90;;;;;;5119115;28;20048;-65
2021/05/23 08:55:54;;;;;;;0.40;0.40;;;22.60;51.90;;;;;;5111529;28;20393;-61
2021/05/23 08:58:27;;;;;;;0.28;0.25;;;22.60;51.80;;;;;;5119576;28;20033;-62
2021/05/23 09:01:00;;;;;;;0.25;0.25;;;22.60;51.80;;;;;;5117860;28;20047;-64
2021/05/23 09:03:32;;;;;;;0.45;0.40;;;22.70;51.80;;;;;;5120806;28;21072;-64
2021/05/23 09:06:06;;;;;;;0.43;0.30;;;22.60;51.80;;;;;;5115317;28;20057;-63
2021/05/23 09:08:39;;;;;;;0.30;0.30;;;22.60;51.90;;;;;;5116447;28;20630;-64
2021/05/23 09:11:11;;;;;;;0.30;0.30;;;22.60;51.90;;;;;;5118985;28;20051;-62
2021/05/23 09:13:45;;;;;;;0.43;0.40;;;22.60;51.90;;;;;;5119902;28;21020;-65
2021/05/23 09:16:17;;;;;;;0.28;0.28;;;22.60;51.90;;;;;;5121788;28;20652;-63
2021/05/23 09:18:57;;;;;;;0.25;0.25;;;22.60;51.90;;;;;;5120164;28;20137;-63
2021/05/23 09:21:35;;;;;;;0.50;0.30;;;22.60;51.80;;;;;;5110628;28;20055;-62
2021/05/23 09:24:09;;;;;;;0.30;0.30;;;22.60;51.90;;;;;;5120301;28;20042;-62
2021/05/23 09:26:45;;;;;;;0.52;0.38;;;22.60;51.90;;;;;;5121670;28;20514;-63
2021/05/23 09:29:20;;;;;;;0.25;0.25;;;22.60;51.90;;;;;;5119349;28;20058;-65
2021/05/23 09:32:02;;;;;;;0.32;0.30;;;22.70;51.90;;;;;;5119881;28;20051;-65
2021/05/23 09:34:35;;;;;;;0.47;0.40;;;22.60;51.80;;;;;;5121345;28;20057;-63
2021/05/23 09:37:12;;;;;;;0.40;0.35;;;22.60;51.80;;;;;;5123288;28;20043;-65
2021/05/23 09:39:45;;;;;;;0.30;0.30;;;22.60;51.80;;;;;;5123747;28;20050;-64
2021/05/23 09:42:18;;;;;;;0.52;0.40;;;22.70;51.80;;;;;;5128368;28;20053;-64
2021/05/23 09:44:56;;;;;;;0.30;0.30;;;22.70;52.00;;;;;;5125650;28;20081;-64
2021/05/23 09:47:29;;;;;;;0.20;0.20;;;22.60;51.90;;;;;;5136233;28;20042;-63
2021/05/23 09:50:03;;;;;;;0.30;0.30;;;22.60;51.90;;;;;;5127003;28;20066;-65
2021/05/23 09:52:38;;;;;;;0.45;0.30;;;22.60;51.80;;;;;;5124223;28;20997;-61
2021/05/23 09:55:11;;;;;;;0.38;0.38;;;22.60;51.90;;;;;;5125371;28;20054;-61
2021/05/23 09:57:49;;;;;;;0.73;0.30;;;22.60;51.90;;;;;;5124628;28;20061;-64
2021/05/23 10:00:22;;;;;;;0.32;0.30;;;22.60;51.90;;;;;;5126812;28;20057;-65
2021/05/23 10:02:59;;;;;;;0.45;0.30;;;22.60;51.90;;;;;;5126108;28;20046;-65
2021/05/23 10:05:32;;;;;;;0.98;0.30;;;22.60;51.90;;;;;;5124641;28;20418;-64
2021/05/23 10:08:14;;;;;;;0.25;0.25;;;22.70;51.90;;;;;;5124427;28;20046;-67
2021/05/23 10:10:47;;;;;;;0.20;0.20;;;22.70;51.80;;;;;;5126301;28;20051;-64
2021/05/23 10:13:21;;;;;;;0.30;0.30;;;22.70;51.70;;;;;;5126807;28;20050;-64
2021/05/23 10:15:54;;;;;;;0.47;0.40;;;22.80;51.60;;;;;;5126590;28;20411;-64
2021/05/23 10:18:28;;;;;;;0.20;0.20;;;22.80;51.60;;;;;;5125743;28;20482;-62
2021/05/23 10:21:01;;;;;;;0.30;0.20;;;22.70;51.60;;;;;;5124906;28;20301;-63
2021/05/23 10:23:54;;;;;;;0.30;0.30;;;22.70;51.70;;;;;;5124682;28;20113;-64
2021/05/23 10:26:28;;;;;;;0.50;0.35;;;22.70;51.80;;;;;;5125818;28;20050;-62
2021/05/23 10:29:02;;;;;;;0.30;0.30;;;22.70;51.80;;;;;;5124115;28;20054;-64
2021/05/23 10:31:36;;;;;;;0.52;0.30;;;22.70;51.80;;;;;;5109147;28;20058;-63
2021/05/23 10:34:09;;;;;;;0.40;0.35;;;22.70;51.80;;;;;;5125661;28;20050;-64
2021/05/23 10:36:43;;;;;;;0.30;0.30;;;22.70;51.80;;;;;;5124606;28;20422;-62
2021/05/23 10:39:16;;;;;;;0.60;0.60;;;22.70;51.80;;;;;;5119287;28;20463;-64
2021/05/23 10:41:48;;;;;;;0.30;0.30;;;22.70;51.70;;;;;;5126470;28;20039;-65
2021/05/23 10:44:40;;;;;;;0.30;0.30;;;22.80;51.60;;;;;;5126487;28;20317;-64
2021/05/23 10:47:18;;;;;;;0.30;0.30;;;22.80;51.60;;;;;;5137119;28;20050;-62
2021/05/23 10:50:03;;;;;;;0.30;0.30;;;22.80;51.70;;;;;;5131063;28;20042;-64
2021/05/23 10:52:39;;;;;;;0.30;0.30;;;22.80;51.60;;;;;;5119968;28;20057;-63
2021/05/23 10:55:16;;;;;;;0.32;0.32;;;22.80;51.70;;;;;;5124964;28;20495;-64
2021/05/23 10:57:50;;;;;;;0.20;0.20;;;22.70;51.70;;;;;;5127870;28;20049;-64
2021/05/23 11:00:26;;;;;;;0.35;0.30;;;22.70;51.80;;;;;;5122329;28;20396;-65
2021/05/23 11:03:12;;;;;;;0.30;0.25;;;22.70;51.70;;;;;;5126479;28;20088;-64
2021/05/23 11:05:46;;;;;;;1.88;0.50;;;22.80;51.80;;;;;;5125472;28;22624;-65
2021/05/23 11:08:34;;;;;;;0.30;0.30;;;22.80;51.80;;;;;;5164561;28;20479;-65
2021/05/23 11:11:08;;;;;;;0.65;0.40;;;22.80;51.70;;;;;;5154426;28;22212;-64
2021/05/23 11:13:41;;;;;;;0.30;0.30;;;22.80;51.60;;;;;;5154550;28;20053;-66
2021/05/23 11:16:17;;;;;;;0.35;0.35;;;22.80;52.20;;;;;;5156991;28;20069;-64
2021/05/23 11:18:49;;;;;;;0.80;0.30;;;22.80;51.60;;;;;;5157262;28;20046;-63
2021/05/23 11:21:22;;;;;;;0.80;0.40;;;22.80;51.60;;;;;;5155517;28;20069;-64
2021/05/23 11:23:55;;;;;;;0.52;0.50;;;22.80;51.60;;;;;;5158720;28;20045;-67
2021/05/23 11:26:29;;;;;;;;;;;22.90;51.60;;;;;;5157166;28;20041;-63
2021/05/23 11:29:03;;;;;;;0.23;0.23;;;22.80;51.60;;;;;;5164469;28;19925;-64
2021/05/23 11:31:37;;;;;;;1.27;0.50;;;22.80;52.30;;;;;;5158235;28;20684;-64
2021/05/23 11:34:10;;;;;;;0.57;0.40;;;22.90;51.60;;;;;;5155044;28;20049;-65
2021/05/23 11:36:42;;;;;;;0.32;0.32;;;22.90;51.60;;;;;;5158822;28;20486;-62
2021/05/23 11:39:19;;;;;;;0.30;0.30;;;22.80;51.60;;;;;;5151316;28;20050;-65
2021/05/23 11:41:51;;;;;;;0.35;0.35;;;22.80;51.60;;;;;;5157273;28;20052;-65
2021/05/23 11:44:46;;;;;;;0.40;0.40;;;22.80;51.70;;;;;;5155103;28;20053;-64
2021/05/23 11:47:19;;;;;;;0.30;0.30;;;22.80;51.80;;;;;;5170991;28;20058;-63
2021/05/23 11:49:53;;;;;;;0.40;0.30;;;22.70;51.80;;;;;;5155644;28;20050;-65
2021/05/23 11:52:25;;;;;;;;;;;22.70;51.90;;;;;;5158675;28;20046;-62
2021/05/23 11:54:58;;;;;;;1.30;0.65;;;22.70;51.80;;;;;;5156059;28;19936;-64
2021/05/23 11:57:30;;;;;;;0.30;0.30;;;22.70;51.80;;;;;;5160675;28;20527;-64
2021/05/23 12:00:18;;;;;;;0.20;0.20;;;22.80;51.70;;;;;;5161402;28;20606;-64
2021/05/23 12:02:58;;;;;;;0.50;0.40;;;22.80;51.60;;;;;;5153065;28;20072;-64
2021/05/23 12:05:40;;;;;;;0.40;0.40;;;22.90;51.70;;;;;;5163269;28;20046;-62
2021/05/23 12:08:20;;;;;;;0.32;0.32;;;22.90;51.60;;;;;;5149194;28;20922;-63
2021/05/23 12:11:02;;;;;;;0.75;0.40;;;22.90;51.60;;;;;;5157224;28;20054;-64
2021/05/23 12:13:55;;;;;;;0.35;0.32;;;22.90;52.20;;;;;;5155319;28;20452;-64
2021/05/23 12:16:28;;;;;;;0.47;0.30;;;22.90;51.60;;;;;;5151132;28;20056;-65
2021/05/23 12:19:01;;;;;;;0.30;0.30;;;22.90;51.60;;;;;;5145003;28;20061;-65
2021/05/23 12:21:34;;;;;;;0.77;0.40;;;22.90;51.60;;;;;;5144548;28;20422;-65
2021/05/23 12:24:07;;;;;;;0.70;0.40;;;22.90;51.60;;;;;;5141335;28;20526;-64
2021/05/23 12:26:41;;;;;;;0.30;0.30;;;22.90;51.60;;;;;;5143899;28;20043;-64
2021/05/23 12:29:23;;;;;;;;;;;22.90;51.60;;;;;;5160672;28;20057;-61
2021/05/23 12:31:56;;;;;;;0.65;0.45;;;22.90;51.60;;;;;;5146746;28;19952;-63
2021/05/23 12:34:43;;;;;;;0.40;0.30;;;22.90;51.60;;;;;;5148409;28;20057;-63
2021/05/23 12:37:21;;;;;;;0.52;0.47;;;22.90;51.60;;;;;;5142414;28;20056;-63
2021/05/23 12:39:53;;;;;;;0.25;0.20;;;22.90;51.60;;;;;;5139062;28;20498;-62
2021/05/23 12:42:32;;;;;;;0.40;0.40;;;22.90;51.60;;;;;;5141994;28;20050;-63
2021/05/23 12:45:07;;;;;;;1.05;0.40;;;23.00;51.60;;;;;;5135793;28;20046;-65
2021/05/23 12:47:52;;;;;;;0.50;0.32;;;22.90;51.50;;;;;;5147766;28;20517;-65
2021/05/23 12:50:31;;;;;;;;;;;22.90;51.60;;;;;;5139916;28;20050;-65
2021/05/23 12:53:04;;;;;;;0.52;0.30;;;22.90;51.60;;;;;;5126253;28;19926;-64
2021/05/23 12:55:38;;;;;;;;;;;22.90;51.60;;;;;;5142870;28;20054;-65
2021/05/23 12:58:11;;;;;;;0.45;0.30;;;22.90;52.30;;;;;;5147016;28;20378;-61
2021/05/23 13:00:52;;;;;;;0.85;0.40;;;22.80;51.60;;;;;;5149345;28;20122;-64
2021/05/23 13:03:25;;;;;;;0.47;0.40;;;22.80;51.70;;;;;;5136755;28;20881;-64
2021/05/23 13:05:59;;;;;;;0.30;0.30;;;22.80;51.70;;;;;;5138661;28;20497;-62
2021/05/23 13:08:35;;;;;;;0.40;0.35;;;22.80;51.70;;;;;;5139259;28;20447;-65
2021/05/23 13:11:20;;;;;;;0.28;0.28;;;22.80;51.70;;;;;;5140453;28;20058;-66
2021/05/23 13:13:53;;;;;;;0.57;0.40;;;22.80;51.80;;;;;;5138817;28;20145;-58
2021/05/23 13:16:46;;;;;;;0.73;0.50;;;22.80;51.70;;;;;;5139412;28;20609;-67
2021/05/23 13:19:24;;;;;;;0.35;0.30;;;22.90;51.70;;;;;;5142077;28;20066;-65
2021/05/23 13:21:58;;;;;;;0.73;0.30;;;22.90;51.80;;;;;;5138068;28;20050;-63
2021/05/23 13:24:34;;;;;;;0.30;0.20;;;22.80;51.60;;;;;;5147370;28;20049;-63